createdAt,value
2023-02-09T00:01:31.719Z,52.20
2023-02-09T00:04:02.562Z,52.33
2023-02-09T00:06:33.339Z,52.59
2023-02-09T00:09:03.558Z,52.52
2023-02-09T00:11:46.495Z,52.82
2023-02-09T00:14:19.205Z,52.59
2023-02-09T00:16:53.520Z,52.99
2023-02-09T00:19:24.192Z,52.71
2023-02-09T00:21:53.943Z,52.78
2023-02-09T00:24:23.557Z,53.06
2023-02-09T00:26:53.234Z,53.13
2023-02-09T00:29:24.088Z,52.95
2023-02-09T00:31:56.428Z,53.35
2023-02-09T00:34:26.015Z,53.51
2023-02-09T00:36:56.653Z,53.61
2023-02-09T00:39:26.513Z,53.63
2023-02-09T00:42:11.387Z,53.64
2023-02-09T00:44:42.521Z,53.75
2023-02-09T00:47:14.687Z,53.88
2023-02-09T00:49:44.262Z,53.80
2023-02-09T00:52:14.061Z,53.93
2023-02-09T00:54:43.602Z,53.81
2023-02-09T00:57:13.264Z,54.24
2023-02-09T00:59:43.256Z,54.09
2023-02-09T01:02:15.418Z,54.18
2023-02-09T01:04:45.050Z,54.51
2023-02-09T01:07:14.666Z,54.70
2023-02-09T01:09:44.196Z,54.47
2023-02-09T01:12:14.132Z,54.38
2023-02-09T01:14:43.927Z,54.56
2023-02-09T01:17:18.223Z,54.77
2023-02-09T01:19:48.273Z,54.76
2023-02-09T01:22:18.056Z,54.57
2023-02-09T01:24:47.808Z,54.99
2023-02-09T01:27:19.072Z,54.97
2023-02-09T01:29:48.678Z,54.77
2023-02-09T01:32:20.859Z,55.10
2023-02-09T01:34:53.249Z,55.27
2023-02-09T01:37:22.894Z,55.15
2023-02-09T01:39:52.686Z,55.25
2023-02-09T01:42:22.961Z,55.28
2023-02-09T01:45:10.843Z,55.47
2023-02-09T01:47:45.159Z,55.18
2023-02-09T01:50:15.373Z,55.44
2023-02-09T01:52:46.915Z,55.22
2023-02-09T01:55:18.313Z,55.47
2023-02-09T01:57:51.611Z,55.46
2023-02-09T02:00:23.667Z,55.45
2023-02-09T02:02:59.413Z,55.43
2023-02-09T02:05:29.921Z,55.86
2023-02-09T02:08:02.452Z,55.68
2023-02-09T02:10:32.716Z,55.79
2023-02-09T02:13:02.956Z,55.64
2023-02-09T02:15:34.279Z,55.89
2023-02-09T02:18:18.999Z,55.90
2023-02-09T02:21:16.729Z,55.89
2023-02-09T02:23:51.120Z,56.26
2023-02-09T02:26:50.975Z,56.40
2023-02-09T02:29:46.518Z,56.16
2023-02-09T02:32:29.735Z,56.39
2023-02-09T02:35:03.850Z,56.43
2023-02-09T02:37:40.402Z,56.33
2023-02-09T02:40:16.870Z,56.31
2023-02-09T02:42:48.740Z,56.57
2023-02-09T02:45:25.183Z,56.62
2023-02-09T02:48:01.941Z,56.66
2023-02-09T02:50:33.427Z,56.64
2023-02-09T02:53:05.660Z,56.53
2023-02-09T02:55:36.715Z,56.92
2023-02-09T02:58:09.642Z,56.76
2023-02-09T03:00:42.709Z,57.04
2023-02-09T03:03:18.119Z,56.87
2023-02-09T03:05:48.199Z,57.11
2023-02-09T03:08:17.960Z,57.11
2023-02-09T03:10:47.857Z,57.18
2023-02-09T03:13:46.264Z,57.22
2023-02-09T03:16:23.845Z,57.29
2023-02-09T03:19:09.503Z,57.42
2023-02-09T03:21:45.599Z,57.36
2023-02-09T03:24:20.697Z,57.48
2023-02-09T03:26:53.166Z,57.61
2023-02-09T03:29:23.617Z,57.75
2023-02-09T03:31:53.960Z,57.56
2023-02-09T03:34:26.214Z,57.93
2023-02-09T03:36:57.518Z,57.99
2023-02-09T03:39:27.124Z,57.72
2023-02-09T03:41:56.754Z,57.93
2023-02-09T03:44:31.949Z,58.16
2023-02-09T03:47:03.294Z,57.90
2023-02-09T03:49:39.323Z,58.34
2023-02-09T03:52:10.529Z,58.38
2023-02-09T03:54:40.255Z,58.37
2023-02-09T03:57:10.991Z,58.26
2023-02-09T03:59:41.086Z,58.62
2023-02-09T04:02:11.997Z,58.74
2023-02-09T04:04:44.248Z,58.45
2023-02-09T04:07:14.016Z,58.60
2023-02-09T04:09:43.591Z,58.80
2023-02-09T04:12:13.220Z,58.70
2023-02-09T04:14:42.809Z,58.65
2023-02-09T04:17:12.414Z,58.79
2023-02-09T04:19:44.569Z,58.97
2023-02-09T04:22:14.166Z,59.08
2023-02-09T04:24:46.849Z,59.23
2023-02-09T04:27:16.457Z,59.12
2023-02-09T04:29:46.475Z,59.20
2023-02-09T04:32:16.107Z,59.43
2023-02-09T04:34:48.671Z,59.31
2023-02-09T04:37:18.688Z,59.20
2023-02-09T04:39:48.327Z,59.42
2023-02-09T04:42:17.927Z,59.39
2023-02-09T04:44:47.509Z,59.32
2023-02-09T04:47:17.100Z,59.67
2023-02-09T04:49:49.273Z,59.51
2023-02-09T04:52:18.995Z,59.55
2023-02-09T04:54:48.580Z,59.56
2023-02-09T04:57:30.691Z,59.74
2023-02-09T05:00:00.315Z,59.77
2023-02-09T05:02:29.938Z,59.89
2023-02-09T05:05:02.164Z,59.65
2023-02-09T05:07:31.826Z,59.98
2023-02-09T05:10:01.424Z,59.81
2023-02-09T05:12:30.993Z,59.88
2023-02-09T05:15:00.540Z,60.24
2023-02-09T05:17:30.165Z,60.22
2023-02-09T05:20:02.561Z,60.15
2023-02-09T05:22:32.119Z,60.19
2023-02-09T05:25:01.686Z,60.28
2023-02-09T05:27:31.277Z,60.44
2023-02-09T05:30:00.844Z,60.29
2023-02-09T05:32:30.441Z,60.32
2023-02-09T05:35:02.607Z,60.65
2023-02-09T05:37:32.193Z,60.46
2023-02-09T05:40:01.758Z,60.72
2023-02-09T05:42:31.468Z,60.49
2023-02-09T05:45:01.027Z,60.51
2023-02-09T05:47:30.609Z,60.77
2023-02-09T05:50:02.789Z,60.69
2023-02-09T05:52:32.466Z,60.52
2023-02-09T05:55:02.051Z,60.68
2023-02-09T05:57:31.662Z,60.76
2023-02-09T06:00:01.228Z,60.78
2023-02-09T06:02:30.970Z,60.92
2023-02-09T06:05:03.156Z,60.91
2023-02-09T06:07:32.793Z,61.04
2023-02-09T06:10:02.364Z,61.03
2023-02-09T06:12:31.976Z,61.24
2023-02-09T06:15:01.666Z,61.22
2023-02-09T06:17:31.296Z,61.23
2023-02-09T06:20:03.464Z,61.27
2023-02-09T06:22:33.060Z,61.42
2023-02-09T06:25:02.838Z,61.35
2023-02-09T06:27:32.434Z,61.34
2023-02-09T06:30:02.030Z,61.46
2023-02-09T06:32:31.644Z,61.46
2023-02-09T06:35:03.828Z,61.52
2023-02-09T06:37:33.404Z,61.54
2023-02-09T06:40:02.963Z,61.44
2023-02-09T06:42:43.963Z,61.58
2023-02-09T06:45:14.187Z,61.76
2023-02-09T06:47:44.453Z,61.61
2023-02-09T06:50:18.109Z,61.84
2023-02-09T06:52:48.016Z,61.70
2023-02-09T06:55:17.832Z,61.64
2023-02-09T06:57:47.381Z,61.47
2023-02-09T07:00:18.236Z,61.56
2023-02-09T07:02:48.184Z,61.52
2023-02-09T07:05:20.858Z,61.44
2023-02-09T07:07:50.460Z,61.65
2023-02-09T07:10:21.679Z,61.66
2023-02-09T07:12:51.244Z,61.32
2023-02-09T07:15:20.950Z,61.32
2023-02-09T07:17:50.549Z,61.39
2023-02-09T07:20:22.805Z,61.36
2023-02-09T07:22:52.374Z,61.30
2023-02-09T07:25:21.922Z,61.25
2023-02-09T07:27:51.525Z,61.21
2023-02-09T07:30:21.441Z,61.24
2023-02-09T07:32:51.000Z,61.21
2023-02-09T07:35:23.309Z,60.75
2023-02-09T07:37:53.065Z,60.55
2023-02-09T07:40:22.700Z,60.59
2023-02-09T07:42:53.905Z,60.31
2023-02-09T07:45:23.462Z,60.06
2023-02-09T07:47:53.082Z,60.02
2023-02-09T07:50:25.339Z,59.76
2023-02-09T07:52:55.914Z,59.44
2023-02-09T07:55:25.956Z,59.23
2023-02-09T07:57:55.800Z,58.60
2023-02-09T08:00:26.169Z,58.49
2023-02-09T08:02:55.842Z,58.38
2023-02-09T08:05:33.592Z,57.71
2023-02-09T08:08:03.284Z,57.57
2023-02-09T08:10:32.924Z,57.29
2023-02-09T08:13:02.820Z,56.67
2023-02-09T08:15:36.670Z,56.06
2023-02-09T08:18:12.448Z,54.89
2023-02-09T08:20:46.406Z,54.20
2023-02-09T08:23:18.689Z,53.73
2023-02-09T08:25:51.437Z,52.68
2023-02-09T08:28:21.727Z,52.19
2023-02-09T08:30:52.304Z,51.51
2023-02-09T08:33:21.960Z,51.23
2023-02-09T08:35:54.141Z,50.54
2023-02-09T08:38:23.865Z,49.70
2023-02-09T08:40:53.460Z,48.61
2023-02-09T08:43:23.100Z,47.99
2023-02-09T08:45:54.000Z,48.18
2023-02-09T08:48:23.608Z,47.71
2023-02-09T08:50:55.791Z,47.57
2023-02-09T08:53:25.336Z,47.68
2023-02-09T08:55:55.254Z,47.23
2023-02-09T08:58:24.983Z,46.80
2023-02-09T09:00:57.150Z,46.71
2023-02-09T09:03:30.032Z,46.21
2023-02-09T09:06:03.493Z,45.72
2023-02-09T09:08:33.664Z,44.98
2023-02-09T09:11:03.439Z,44.59
2023-02-09T09:13:33.464Z,44.14
2023-02-09T09:16:05.205Z,43.58
2023-02-09T09:18:34.965Z,43.46
2023-02-09T09:21:07.866Z,42.38
2023-02-09T09:23:37.424Z,42.67
2023-02-09T09:26:07.444Z,41.90
2023-02-09T09:28:37.112Z,41.52
2023-02-09T09:31:10.747Z,40.69
2023-02-09T09:33:41.769Z,40.20
2023-02-09T09:36:15.091Z,39.75
2023-02-09T09:38:44.795Z,39.20
2023-02-09T09:41:23.038Z,38.88
2023-02-09T09:43:53.055Z,38.83
2023-02-09T09:46:25.109Z,38.59
2023-02-09T09:48:56.338Z,38.52
2023-02-09T09:51:34.631Z,38.54
2023-02-09T09:54:06.392Z,38.44
2023-02-09T09:56:36.723Z,38.35
2023-02-09T09:59:09.357Z,37.99
2023-02-09T10:01:38.946Z,37.89
2023-02-09T10:04:13.486Z,37.50
2023-02-09T10:06:49.318Z,37.55
2023-02-09T10:09:28.342Z,37.34
2023-02-09T10:12:07.670Z,37.28
2023-02-09T10:14:37.221Z,37.28
2023-02-09T10:17:06.864Z,37.00
2023-02-09T10:19:36.488Z,37.39
2023-02-09T10:22:14.412Z,37.35
2023-02-09T10:24:44.012Z,37.84
2023-02-09T10:27:17.963Z,37.71
2023-02-09T10:29:47.562Z,37.97
2023-02-09T10:32:18.571Z,38.07
2023-02-09T10:34:50.542Z,38.25
2023-02-09T10:37:25.662Z,39.06
2023-02-09T10:40:02.898Z,39.54
2023-02-09T10:42:34.323Z,39.73
2023-02-09T10:45:09.951Z,40.00
2023-02-09T10:47:39.548Z,40.22
2023-02-09T10:50:19.890Z,40.74
2023-02-09T10:53:17.228Z,40.91
2023-02-09T10:55:48.501Z,41.39
2023-02-09T10:58:25.522Z,41.69
2023-02-09T11:01:02.620Z,41.87
2023-02-09T11:03:32.216Z,42.01
2023-02-09T11:06:04.502Z,41.88
2023-02-09T11:08:44.720Z,42.10
2023-02-09T11:11:23.953Z,41.90
2023-02-09T11:13:53.604Z,42.41
2023-02-09T11:16:31.837Z,42.25
2023-02-09T11:19:07.743Z,42.65
2023-02-09T11:21:52.369Z,43.04
2023-02-09T11:24:29.824Z,42.91
2023-02-09T11:27:04.010Z,43.22
2023-02-09T11:29:35.139Z,43.10
2023-02-09T11:32:13.746Z,43.16
2023-02-09T11:35:10.915Z,43.06
2023-02-09T11:37:48.669Z,43.30
2023-02-09T11:40:30.355Z,43.46
2023-02-09T11:43:09.345Z,43.36
2023-02-09T11:45:45.279Z,43.18
2023-02-09T11:48:16.794Z,43.32
2023-02-09T11:50:55.308Z,43.23
2023-02-09T11:53:31.119Z,43.46
2023-02-09T11:56:06.785Z,43.50
2023-02-09T11:58:53.311Z,43.28
2023-02-09T12:01:30.650Z,43.25
2023-02-09T12:04:06.196Z,43.38
2023-02-09T12:06:40.353Z,43.22
2023-02-09T12:09:18.921Z,43.44
2023-02-09T12:11:58.867Z,43.21
2023-02-09T12:14:47.439Z,43.32
2023-02-09T12:17:19.826Z,43.01
2023-02-09T12:19:57.784Z,43.49
2023-02-09T12:22:53.190Z,43.54
2023-02-09T12:25:26.062Z,43.33
2023-02-09T12:28:43.556Z,43.53
2023-02-09T12:31:19.840Z,43.72
2023-02-09T12:34:28.367Z,43.70
2023-02-09T12:37:19.336Z,43.62
2023-02-09T12:40:21.184Z,43.33
2023-02-09T12:43:12.103Z,43.47
2023-02-09T12:45:42.940Z,43.60
2023-02-09T12:48:21.400Z,43.44
2023-02-09T12:50:54.820Z,43.19
2023-02-09T12:53:45.518Z,43.47
2023-02-09T12:56:41.782Z,43.26
2023-02-09T12:59:22.533Z,43.71
2023-02-09T13:02:13.998Z,43.69
2023-02-09T13:04:56.388Z,44.03
2023-02-09T13:07:30.641Z,44.07
2023-02-09T13:10:00.037Z,43.99
2023-02-09T13:12:38.372Z,44.02
2023-02-09T13:15:15.539Z,44.03
2023-02-09T13:17:47.979Z,44.10
2023-02-09T13:20:34.088Z,44.12
2023-02-09T13:23:13.161Z,44.19
2023-02-09T13:25:44.375Z,44.06
2023-02-09T13:28:18.733Z,44.17
2023-02-09T13:30:48.819Z,44.20
2023-02-09T13:33:30.552Z,44.58
2023-02-09T13:36:24.679Z,44.57
2023-02-09T13:38:54.991Z,44.55
2023-02-09T13:41:31.025Z,44.05
2023-02-09T13:44:00.639Z,43.73
2023-02-09T13:46:34.504Z,43.77
2023-02-09T13:49:14.611Z,43.60
2023-02-09T13:51:46.787Z,43.98
2023-02-09T13:54:21.977Z,44.04
2023-02-09T13:56:52.079Z,44.18
2023-02-09T13:59:21.651Z,44.03
2023-02-09T14:01:52.234Z,43.99
2023-02-09T14:04:23.846Z,44.16
2023-02-09T14:07:01.713Z,44.05
2023-02-09T14:09:34.128Z,44.14
2023-02-09T14:12:08.173Z,44.30
2023-02-09T14:14:53.855Z,44.25
2023-02-09T14:17:26.990Z,44.17
2023-02-09T14:19:57.677Z,44.23
2023-02-09T14:22:36.148Z,44.37
2023-02-09T14:25:19.674Z,44.62
2023-02-09T14:27:50.153Z,44.84
2023-02-09T14:30:22.221Z,44.78
2023-02-09T14:32:55.409Z,44.85
2023-02-09T14:35:26.644Z,44.86
2023-02-09T14:38:00.834Z,44.94
2023-02-09T14:40:34.431Z,45.23
2023-02-09T14:43:05.897Z,45.21
2023-02-09T14:45:40.896Z,44.94
2023-02-09T14:48:21.669Z,45.22
2023-02-09T14:50:51.764Z,45.11
2023-02-09T14:53:24.801Z,45.30
2023-02-09T14:55:54.798Z,45.25
2023-02-09T14:58:25.941Z,45.58
2023-02-09T15:00:57.062Z,45.40
2023-02-09T15:03:26.885Z,45.36
2023-02-09T15:05:59.544Z,45.41
2023-02-09T15:08:34.003Z,45.35
2023-02-09T15:11:25.998Z,45.46
2023-02-09T15:14:01.470Z,45.77
2023-02-09T15:16:31.039Z,45.66
2023-02-09T15:19:00.981Z,45.81
2023-02-09T15:21:30.695Z,45.96
2023-02-09T15:24:02.867Z,46.19
2023-02-09T15:26:33.190Z,46.55
2023-02-09T15:29:02.772Z,46.63
2023-02-09T15:31:32.384Z,46.87
2023-02-09T15:34:01.948Z,47.23
2023-02-09T15:36:31.588Z,47.13
2023-02-09T15:39:03.763Z,47.20
2023-02-09T15:41:45.798Z,47.15
2023-02-09T15:44:31.160Z,47.12
2023-02-09T15:47:13.213Z,47.17
2023-02-09T15:49:42.804Z,47.18
2023-02-09T15:52:12.484Z,47.36
2023-02-09T15:54:45.187Z,48.00
2023-02-09T15:57:15.803Z,48.07
2023-02-09T15:59:46.385Z,47.84
2023-02-09T16:02:16.806Z,48.08
2023-02-09T16:04:46.406Z,48.28
2023-02-09T16:07:17.517Z,48.38
2023-02-09T16:09:49.845Z,48.59
2023-02-09T16:12:19.410Z,48.58
2023-02-09T16:14:48.963Z,48.78
2023-02-09T16:17:18.609Z,49.03
2023-02-09T16:19:49.088Z,49.13
2023-02-09T16:22:22.700Z,49.07
2023-02-09T16:24:54.925Z,49.18
2023-02-09T16:27:28.104Z,49.42
2023-02-09T16:29:57.951Z,49.74
2023-02-09T16:32:28.775Z,49.74
2023-02-09T16:35:14.474Z,49.70
2023-02-09T16:37:47.239Z,50.00
2023-02-09T16:40:27.415Z,49.97
2023-02-09T16:42:57.569Z,49.95
2023-02-09T16:45:29.776Z,50.49
2023-02-09T16:47:59.933Z,50.68
2023-02-09T16:50:33.005Z,50.95
2023-02-09T16:53:04.500Z,51.17
2023-02-09T16:55:41.940Z,51.20
2023-02-09T16:58:15.129Z,51.46
2023-02-09T17:00:46.296Z,51.87
2023-02-09T17:03:19.863Z,52.10
2023-02-09T17:05:51.167Z,52.11
2023-02-09T17:08:22.269Z,52.49
2023-02-09T17:10:55.616Z,52.63
2023-02-09T17:13:25.289Z,52.76
2023-02-09T17:15:56.543Z,53.01
2023-02-09T17:18:27.722Z,53.41
2023-02-09T17:20:59.566Z,53.31
2023-02-09T17:23:32.252Z,53.29
2023-02-09T17:26:04.773Z,53.68
2023-02-09T17:28:34.763Z,53.74
2023-02-09T17:31:05.737Z,53.81
2023-02-09T17:33:37.065Z,54.09
2023-02-09T17:38:57.095Z,54.16
2023-02-09T17:41:31.818Z,54.66
2023-02-09T17:44:18.795Z,54.89
2023-02-09T17:46:51.833Z,55.03
2023-02-09T17:49:21.405Z,55.11
2023-02-09T17:51:51.593Z,55.40
2023-02-09T17:54:22.595Z,55.45
2023-02-09T17:56:55.146Z,55.74
2023-02-09T17:59:24.743Z,55.82
2023-02-09T18:01:56.206Z,55.82
2023-02-09T18:04:28.709Z,56.04
2023-02-09T18:06:58.456Z,56.08
2023-02-09T18:09:28.051Z,56.33
2023-02-09T18:12:02.442Z,56.46
2023-02-09T18:14:33.346Z,56.14
2023-02-09T18:17:03.422Z,56.24
2023-02-09T18:19:33.237Z,56.13
2023-02-09T18:22:03.992Z,55.77
2023-02-09T18:24:35.997Z,55.55
2023-02-09T18:27:08.836Z,55.38
2023-02-09T18:29:38.486Z,55.54
2023-02-09T18:32:08.642Z,55.48
2023-02-09T18:34:39.024Z,55.23
2023-02-09T18:37:08.733Z,55.24
2023-02-09T18:39:45.916Z,55.38
2023-02-09T18:42:18.970Z,55.43
2023-02-09T18:44:48.532Z,55.52
2023-02-09T18:47:18.443Z,55.70
2023-02-09T18:49:48.237Z,55.83
2023-02-09T18:52:18.902Z,56.26
2023-02-09T18:54:48.460Z,56.12
2023-02-09T18:57:20.752Z,56.30
2023-02-09T18:59:50.736Z,56.16
2023-02-09T19:02:20.400Z,56.19
2023-02-09T19:04:49.974Z,56.07
2023-02-09T19:07:19.558Z,56.21
2023-02-09T19:09:49.138Z,55.94
2023-02-09T19:12:21.275Z,56.13
2023-02-09T19:14:52.353Z,55.92
2023-02-09T19:17:23.197Z,56.05
2023-02-09T19:19:53.154Z,55.97
2023-02-09T19:22:23.988Z,56.08
2023-02-09T19:24:56.896Z,56.06
2023-02-09T19:27:30.796Z,55.80
2023-02-09T19:30:00.952Z,55.71
2023-02-09T19:32:30.533Z,55.65
2023-02-09T19:35:00.169Z,55.75
2023-02-09T19:37:29.738Z,55.78
2023-02-09T19:40:04.705Z,55.65
2023-02-09T19:42:36.997Z,55.57
2023-02-09T19:45:06.972Z,55.68
2023-02-09T19:47:36.508Z,55.70
2023-02-09T19:50:06.623Z,55.59
2023-02-09T19:52:38.310Z,55.66
2023-02-09T19:55:08.969Z,55.74
2023-02-09T19:57:42.455Z,55.89
2023-02-09T20:00:14.903Z,55.66
2023-02-09T20:02:44.560Z,55.81
2023-02-09T20:05:14.160Z,55.67
2023-02-09T20:07:43.770Z,55.87
2023-02-09T20:10:13.793Z,56.02
2023-02-09T20:12:45.952Z,55.95
2023-02-09T20:15:15.554Z,55.89
2023-02-09T20:20:14.991Z,56.30
2023-02-09T20:22:44.565Z,56.21
2023-02-09T20:25:16.267Z,56.58
2023-02-09T20:27:50.467Z,56.75
2023-02-09T20:30:20.084Z,56.59
2023-02-09T20:32:49.666Z,56.38
2023-02-09T20:35:19.299Z,57.00
2023-02-09T20:37:48.924Z,57.00
2023-02-09T20:40:18.959Z,57.23
2023-02-09T20:43:03.629Z,57.66
2023-02-09T20:45:45.917Z,57.82
2023-02-09T20:48:17.401Z,57.80
2023-02-09T20:50:47.959Z,58.15
2023-02-09T20:53:17.762Z,58.45
2023-02-09T20:55:47.354Z,58.95
2023-02-09T20:58:20.097Z,59.45
2023-02-09T21:00:50.160Z,59.89
2023-02-09T21:03:19.887Z,60.40
2023-02-09T21:05:49.495Z,60.86
2023-02-09T21:08:19.071Z,61.45
2023-02-09T21:10:49.204Z,62.05
2023-02-09T21:13:21.568Z,62.61
2023-02-09T21:15:51.852Z,62.73
2023-02-09T21:18:21.939Z,63.52
2023-02-09T21:20:51.983Z,63.78
2023-02-09T21:23:22.190Z,64.20
2023-02-09T21:25:51.770Z,64.64
2023-02-09T21:28:23.992Z,64.98
2023-02-09T21:30:53.593Z,65.65
2023-02-09T21:33:23.144Z,65.85
2023-02-09T21:35:52.717Z,66.43
2023-02-09T21:38:22.327Z,66.69
2023-02-09T21:40:51.888Z,67.01
2023-02-09T21:43:24.040Z,67.38
2023-02-09T21:45:53.646Z,67.75
2023-02-09T21:48:23.239Z,68.06
2023-02-09T21:50:52.934Z,68.53
2023-02-09T21:53:22.495Z,68.61
2023-02-09T21:55:52.110Z,69.07
2023-02-09T21:58:24.279Z,69.37
2023-02-09T22:00:59.443Z,69.48
2023-02-09T22:03:29.029Z,69.54
2023-02-09T22:05:58.878Z,69.83
2023-02-09T22:08:28.678Z,70.01
2023-02-09T22:10:58.653Z,70.23
2023-02-09T22:13:31.635Z,70.77
2023-02-09T22:16:01.394Z,70.75
2023-02-09T22:18:30.956Z,71.00
2023-02-09T22:21:00.567Z,71.06
2023-02-09T22:23:30.265Z,71.27
2023-02-09T22:26:01.539Z,71.50
2023-02-09T22:28:36.129Z,71.94
2023-02-09T22:31:09.168Z,72.09
2023-02-09T22:33:38.833Z,71.99
2023-02-09T22:36:09.219Z,72.09
2023-02-09T22:38:38.932Z,72.50
2023-02-09T22:41:21.330Z,72.38
2023-02-09T22:43:55.398Z,72.83
2023-02-09T22:46:27.097Z,72.83
2023-02-09T22:48:58.274Z,72.63
2023-02-09T22:51:28.787Z,73.04
2023-02-09T22:53:58.511Z,72.89
2023-02-09T22:56:28.327Z,72.93
2023-02-09T22:59:01.840Z,73.02
2023-02-09T23:01:31.995Z,73.11
2023-02-09T23:04:01.842Z,73.21
2023-02-09T23:06:32.139Z,73.26
2023-02-09T23:09:03.360Z,73.25
2023-02-09T23:11:34.473Z,73.30
2023-02-09T23:14:10.140Z,73.42
2023-02-09T23:16:41.410Z,73.42
2023-02-09T23:19:13.469Z,73.70
2023-02-09T23:21:44.762Z,73.82
2023-02-09T23:24:15.053Z,73.89
2023-02-09T23:26:44.858Z,73.89
2023-02-09T23:29:18.525Z,73.96
2023-02-09T23:31:48.797Z,74.05
2023-02-09T23:34:21.351Z,74.27
2023-02-09T23:36:51.171Z,74.17
2023-02-09T23:39:23.342Z,74.12
2023-02-09T23:41:52.953Z,74.38
2023-02-09T23:44:25.163Z,74.23
2023-02-09T23:46:54.795Z,74.36
2023-02-09T23:49:24.443Z,74.25
2023-02-09T23:51:54.059Z,74.30
2023-02-09T23:54:23.643Z,74.53
2023-02-09T23:56:53.742Z,74.66
2023-02-09T23:59:25.980Z,74.72
